sensor_id;sensor_type;location;lat;lon;timestamp;pressure;altitude;pressure_sealevel;temperature;humidity
47280;BME280;34064;44.942;0.008;2022-12-07T00:00:31;99052.63;;;6.98;59.48
47280;BME280;34064;44.942;0.008;2022-12-07T00:02:57;99047.41;;;6.97;59.63
47280;BME280;34064;44.942;0.008;2022-12-07T00:05:23;99045.97;;;6.91;59.45
47280;BME280;34064;44.942;0.008;2022-12-07T00:07:49;99044.25;;;6.90;59.56
47280;BME280;34064;44.942;0.008;2022-12-07T00:10:15;99049.81;;;6.85;59.65
47280;BME280;34064;44.942;0.008;2022-12-07T00:12:41;99049.31;;;6.79;59.93
47280;BME280;34064;44.942;0.008;2022-12-07T00:15:08;99060.16;;;6.74;60.03
47280;BME280;34064;44.942;0.008;2022-12-07T00:17:34;99056.75;;;6.72;60.31
47280;BME280;34064;44.942;0.008;2022-12-07T00:20:00;99056.56;;;6.75;60.11
47280;BME280;34064;44.942;0.008;2022-12-07T00:22:26;99051.97;;;6.79;59.99
47280;BME280;34064;44.942;0.008;2022-12-07T00:24:52;99057.84;;;6.68;60.16
47280;BME280;34064;44.942;0.008;2022-12-07T00:27:19;99051.97;;;6.63;60.14
47280;BME280;34064;44.942;0.008;2022-12-07T00:29:45;99054.78;;;6.60;60.30
47280;BME280;34064;44.942;0.008;2022-12-07T00:32:11;99053.16;;;6.57;60.55
47280;BME280;34064;44.942;0.008;2022-12-07T00:34:37;99050.44;;;6.59;60.68
47280;BME280;34064;44.942;0.008;2022-12-07T00:37:03;99051.97;;;6.63;60.28
47280;BME280;34064;44.942;0.008;2022-12-07T00:39:29;99043.28;;;6.61;60.04
47280;BME280;34064;44.942;0.008;2022-12-07T00:41:56;99039.88;;;6.59;60.45
47280;BME280;34064;44.942;0.008;2022-12-07T00:44:22;99047.03;;;6.56;60.59
47280;BME280;34064;44.942;0.008;2022-12-07T00:46:48;99041.75;;;6.56;60.67
47280;BME280;34064;44.942;0.008;2022-12-07T00:49:14;99041.94;;;6.53;60.37
47280;BME280;34064;44.942;0.008;2022-12-07T00:51:40;99039.56;;;6.49;60.65
47280;BME280;34064;44.942;0.008;2022-12-07T00:54:06;99033.25;;;6.51;60.49
47280;BME280;34064;44.942;0.008;2022-12-07T00:56:33;99036.72;;;6.52;60.63
47280;BME280;34064;44.942;0.008;2022-12-07T00:59:00;99029.00;;;6.49;60.52
47280;BME280;34064;44.942;0.008;2022-12-07T01:01:27;99028.13;;;6.48;60.73
47280;BME280;34064;44.942;0.008;2022-12-07T01:03:54;99033.34;;;6.50;60.56
47280;BME280;34064;44.942;0.008;2022-12-07T01:06:20;99030.97;;;6.45;60.53
47280;BME280;34064;44.942;0.008;2022-12-07T01:08:47;99035.47;;;6.43;60.73
47280;BME280;34064;44.942;0.008;2022-12-07T01:11:14;99042.72;;;6.39;60.89
47280;BME280;34064;44.942;0.008;2022-12-07T01:13:41;99036.66;;;6.37;60.89
47280;BME280;34064;44.942;0.008;2022-12-07T01:16:07;99027.13;;;6.35;60.79
47280;BME280;34064;44.942;0.008;2022-12-07T01:18:34;99030.53;;;6.37;60.79
47280;BME280;34064;44.942;0.008;2022-12-07T01:21:01;99027.47;;;6.29;60.96
47280;BME280;34064;44.942;0.008;2022-12-07T01:23:28;99024.13;;;6.25;61.15
47280;BME280;34064;44.942;0.008;2022-12-07T01:25:58;99025.78;;;6.28;61.05
47280;BME280;34064;44.942;0.008;2022-12-07T01:28:24;99015.97;;;6.30;61.23
47280;BME280;34064;44.942;0.008;2022-12-07T01:30:56;99016.56;;;6.35;61.09
47280;BME280;34064;44.942;0.008;2022-12-07T01:33:23;99018.28;;;6.36;61.17
47280;BME280;34064;44.942;0.008;2022-12-07T01:35:49;99018.09;;;6.39;60.87
47280;BME280;34064;44.942;0.008;2022-12-07T01:38:15;99016.75;;;6.32;60.85
47280;BME280;34064;44.942;0.008;2022-12-07T01:40:41;99018.03;;;6.24;61.26
47280;BME280;34064;44.942;0.008;2022-12-07T01:43:16;99018.78;;;6.27;61.03
47280;BME280;34064;44.942;0.008;2022-12-07T01:45:44;99020.66;;;6.24;61.17
47280;BME280;34064;44.942;0.008;2022-12-07T01:48:12;99022.19;;;6.29;61.11
47280;BME280;34064;44.942;0.008;2022-12-07T01:50:40;99016.06;;;6.28;61.01
47280;BME280;34064;44.942;0.008;2022-12-07T01:53:08;99026.09;;;6.21;61.42
47280;BME280;34064;44.942;0.008;2022-12-07T01:55:35;99017.41;;;6.19;61.21
47280;BME280;34064;44.942;0.008;2022-12-07T01:58:04;99020.03;;;6.19;61.38
47280;BME280;34064;44.942;0.008;2022-12-07T02:00:30;99023.03;;;6.13;61.38
47280;BME280;34064;44.942;0.008;2022-12-07T02:03:11;99023.19;;;6.10;61.52
47280;BME280;34064;44.942;0.008;2022-12-07T02:05:40;99025.81;;;6.10;61.41
47280;BME280;34064;44.942;0.008;2022-12-07T02:08:07;99031.19;;;6.08;61.93
47280;BME280;34064;44.942;0.008;2022-12-07T02:10:34;99025.94;;;6.08;61.98
47280;BME280;34064;44.942;0.008;2022-12-07T02:15:39;99040.38;;;6.01;62.12
47280;BME280;34064;44.942;0.008;2022-12-07T02:21:00;99042.78;;;6.06;61.70
47280;BME280;34064;44.942;0.008;2022-12-07T02:23:38;99049.22;;;6.00;61.86
47280;BME280;34064;44.942;0.008;2022-12-07T02:28:52;99055.81;;;5.91;61.97
47280;BME280;34064;44.942;0.008;2022-12-07T02:31:27;99054.72;;;5.96;61.54
47280;BME280;34064;44.942;0.008;2022-12-07T02:33:58;99050.38;;;5.94;61.71
47280;BME280;34064;44.942;0.008;2022-12-07T02:36:30;99043.41;;;5.93;61.64
47280;BME280;34064;44.942;0.008;2022-12-07T02:39:05;99044.41;;;5.91;61.52
47280;BME280;34064;44.942;0.008;2022-12-07T02:41:36;99042.03;;;5.86;61.80
47280;BME280;34064;44.942;0.008;2022-12-07T02:44:05;99048.22;;;5.85;61.68
47280;BME280;34064;44.942;0.008;2022-12-07T02:46:36;99034.91;;;5.88;61.58
47280;BME280;34064;44.942;0.008;2022-12-07T02:49:04;99034.72;;;5.91;61.64
47280;BME280;34064;44.942;0.008;2022-12-07T02:51:31;99037.59;;;5.87;61.60
47280;BME280;34064;44.942;0.008;2022-12-07T02:53:58;99028.84;;;5.86;61.61
47280;BME280;34064;44.942;0.008;2022-12-07T03:01:31;99029.00;;;5.83;61.11
47280;BME280;34064;44.942;0.008;2022-12-07T03:04:08;99032.81;;;5.77;61.39
47280;BME280;34064;44.942;0.008;2022-12-07T03:06:42;99031.81;;;5.80;61.31
47280;BME280;34064;44.942;0.008;2022-12-07T03:09:32;99031.81;;;5.80;61.36
47280;BME280;34064;44.942;0.008;2022-12-07T03:12:04;99023.13;;;5.78;61.42
47280;BME280;34064;44.942;0.008;2022-12-07T03:14:34;99023.97;;;5.78;61.37
47280;BME280;34064;44.942;0.008;2022-12-07T03:17:12;99022.25;;;5.77;61.17
47280;BME280;34064;44.942;0.008;2022-12-07T03:19:40;99020.66;;;5.75;61.50
47280;BME280;34064;44.942;0.008;2022-12-07T03:22:11;99012.75;;;5.75;61.34
47280;BME280;34064;44.942;0.008;2022-12-07T03:24:42;99011.03;;;5.74;61.39
47280;BME280;34064;44.942;0.008;2022-12-07T03:27:11;99013.06;;;5.69;61.46
47280;BME280;34064;44.942;0.008;2022-12-07T03:29:40;99013.91;;;5.69;61.30
47280;BME280;34064;44.942;0.008;2022-12-07T03:32:16;99021.13;;;5.66;61.23
47280;BME280;34064;44.942;0.008;2022-12-07T03:34:51;99024.69;;;5.65;61.46
47280;BME280;34064;44.942;0.008;2022-12-07T03:37:33;99018.50;;;5.66;61.30
47280;BME280;34064;44.942;0.008;2022-12-07T03:40:03;99028.44;;;5.60;61.18
47280;BME280;34064;44.942;0.008;2022-12-07T03:42:32;99021.63;;;5.56;61.67
47280;BME280;34064;44.942;0.008;2022-12-07T03:44:58;99025.81;;;5.60;61.42
47280;BME280;34064;44.942;0.008;2022-12-07T03:50:15;99013.22;;;5.66;61.22
47280;BME280;34064;44.942;0.008;2022-12-07T03:52:47;99015.78;;;5.67;61.29
47280;BME280;34064;44.942;0.008;2022-12-07T03:55:19;99016.78;;;5.65;61.32
47280;BME280;34064;44.942;0.008;2022-12-07T03:57:49;99016.09;;;5.61;61.08
47280;BME280;34064;44.942;0.008;2022-12-07T04:00:17;99028.84;;;5.53;61.65
47280;BME280;34064;44.942;0.008;2022-12-07T04:02:44;99019.00;;;5.56;61.43
47280;BME280;34064;44.942;0.008;2022-12-07T04:05:10;99019.84;;;5.57;61.17
47280;BME280;34064;44.942;0.008;2022-12-07T04:07:37;99022.88;;;5.49;61.45
47280;BME280;34064;44.942;0.008;2022-12-07T04:10:03;99024.41;;;5.53;61.49
47280;BME280;34064;44.942;0.008;2022-12-07T04:12:29;99031.56;;;5.51;61.18
47280;BME280;34064;44.942;0.008;2022-12-07T04:14:56;99022.88;;;5.49;61.11
47280;BME280;34064;44.942;0.008;2022-12-07T04:17:22;99028.16;;;5.49;61.33
47280;BME280;34064;44.942;0.008;2022-12-07T04:19:48;99027.28;;;5.49;61.20
47280;BME280;34064;44.942;0.008;2022-12-07T04:22:15;99018.69;;;5.45;61.11
47280;BME280;34064;44.942;0.008;2022-12-07T04:24:41;99026.78;;;5.42;61.06
47280;BME280;34064;44.942;0.008;2022-12-07T04:27:07;99020.63;;;5.41;61.33
47280;BME280;34064;44.942;0.008;2022-12-07T04:29:33;99012.81;;;5.40;61.18
47280;BME280;34064;44.942;0.008;2022-12-07T04:31:59;99011.44;;;5.33;61.25
47280;BME280;34064;44.942;0.008;2022-12-07T04:34:26;99014.81;;;5.35;61.31
47280;BME280;34064;44.942;0.008;2022-12-07T04:36:52;99011.44;;;5.33;61.01
47280;BME280;34064;44.942;0.008;2022-12-07T04:41:44;99015.31;;;5.25;61.30
47280;BME280;34064;44.942;0.008;2022-12-07T04:44:10;99015.47;;;5.22;61.14
47280;BME280;34064;44.942;0.008;2022-12-07T04:46:40;99013.78;;;5.21;61.22
47280;BME280;34064;44.942;0.008;2022-12-07T04:49:06;99014.78;;;5.19;61.21
47280;BME280;34064;44.942;0.008;2022-12-07T04:51:32;99022.75;;;5.17;61.09
47280;BME280;34064;44.942;0.008;2022-12-07T04:53:59;99019.34;;;5.15;61.22
47280;BME280;34064;44.942;0.008;2022-12-07T04:56:25;99015.94;;;5.13;60.79
47280;BME280;34064;44.942;0.008;2022-12-07T04:58:52;99029.16;;;5.11;61.12
47280;BME280;34064;44.942;0.008;2022-12-07T05:01:18;99024.78;;;5.12;60.92
47280;BME280;34064;44.942;0.008;2022-12-07T05:03:45;99024.91;;;5.09;60.81
47280;BME280;34064;44.942;0.008;2022-12-07T05:06:11;99022.59;;;5.03;60.86
47280;BME280;34064;44.942;0.008;2022-12-07T05:08:38;99024.69;;;4.96;61.17
47280;BME280;34064;44.942;0.008;2022-12-07T05:11:04;99020.25;;;4.96;61.05
47280;BME280;34064;44.942;0.008;2022-12-07T05:13:31;99014.16;;;4.96;61.01
47280;BME280;34064;44.942;0.008;2022-12-07T05:15:58;99017.03;;;4.91;61.01
47280;BME280;34064;44.942;0.008;2022-12-07T05:18:24;99023.13;;;4.92;60.96
47280;BME280;34064;44.942;0.008;2022-12-07T05:20:50;99007.41;;;4.90;60.98
47280;BME280;34064;44.942;0.008;2022-12-07T05:23:17;99009.13;;;4.91;60.81
47280;BME280;34064;44.942;0.008;2022-12-07T05:25:43;99022.19;;;4.93;61.17
47280;BME280;34064;44.942;0.008;2022-12-07T05:28:10;99022.44;;;4.88;61.08
47280;BME280;34064;44.942;0.008;2022-12-07T05:30:36;99025.00;;;4.90;60.89
47280;BME280;34064;44.942;0.008;2022-12-07T05:33:02;99022.59;;;4.85;61.07
47280;BME280;34064;44.942;0.008;2022-12-07T05:35:29;99023.44;;;4.86;60.91
47280;BME280;34064;44.942;0.008;2022-12-07T05:37:55;99015.31;;;4.90;60.93
47280;BME280;34064;44.942;0.008;2022-12-07T05:40:22;99013.31;;;4.95;61.08
47280;BME280;34064;44.942;0.008;2022-12-07T05:42:49;99008.66;;;5.00;60.99
47280;BME280;34064;44.942;0.008;2022-12-07T05:45:15;99008.66;;;5.00;61.14
47280;BME280;34064;44.942;0.008;2022-12-07T05:47:41;99008.75;;;4.99;61.26
47280;BME280;34064;44.942;0.008;2022-12-07T05:50:07;99006.72;;;5.04;61.28
47280;BME280;34064;44.942;0.008;2022-12-07T05:52:33;99004.78;;;5.08;61.11
47280;BME280;34064;44.942;0.008;2022-12-07T05:55:00;99001.91;;;5.12;60.98
47280;BME280;34064;44.942;0.008;2022-12-07T05:57:26;99003.00;;;5.08;61.12
47280;BME280;34064;44.942;0.008;2022-12-07T05:59:52;99012.69;;;5.08;61.13
47280;BME280;34064;44.942;0.008;2022-12-07T06:02:18;99022.44;;;5.06;61.14
47280;BME280;34064;44.942;0.008;2022-12-07T06:04:45;99014.72;;;5.03;61.25
47280;BME280;34064;44.942;0.008;2022-12-07T06:07:12;99020.91;;;5.02;61.41
47280;BME280;34064;44.942;0.008;2022-12-07T06:09:39;99020.81;;;5.03;61.19
47280;BME280;34064;44.942;0.008;2022-12-07T06:12:05;99018.13;;;5.05;61.29
47280;BME280;34064;44.942;0.008;2022-12-07T06:14:50;99020.34;;;4.95;61.69
47280;BME280;34064;44.942;0.008;2022-12-07T06:17:16;99013.94;;;5.00;61.40
47280;BME280;34064;44.942;0.008;2022-12-07T06:19:42;99014.00;;;4.99;61.32
47280;BME280;34064;44.942;0.008;2022-12-07T06:22:09;99005.34;;;4.97;61.54
47280;BME280;34064;44.942;0.008;2022-12-07T06:24:37;98995.50;;;5.00;61.25
47280;BME280;34064;44.942;0.008;2022-12-07T06:27:03;98991.94;;;5.02;61.46
47280;BME280;34064;44.942;0.008;2022-12-07T06:29:30;98988.53;;;4.99;61.59
47280;BME280;34064;44.942;0.008;2022-12-07T06:31:56;98992.09;;;4.98;61.51
47280;BME280;34064;44.942;0.008;2022-12-07T06:34:23;98995.50;;;5.00;61.46
47280;BME280;34064;44.942;0.008;2022-12-07T06:36:49;99005.25;;;4.98;61.36
47280;BME280;34064;44.942;0.008;2022-12-07T06:39:21;99009.72;;;4.96;61.05
47280;BME280;34064;44.942;0.008;2022-12-07T06:41:48;99023.22;;;4.90;61.07
47280;BME280;34064;44.942;0.008;2022-12-07T06:44:14;99027.31;;;4.78;61.47
47280;BME280;34064;44.942;0.008;2022-12-07T06:46:40;99021.41;;;4.73;61.33
47280;BME280;34064;44.942;0.008;2022-12-07T06:49:06;99023.34;;;4.69;61.40
47280;BME280;34064;44.942;0.008;2022-12-07T06:51:32;99019.94;;;4.67;61.66
47280;BME280;34064;44.942;0.008;2022-12-07T06:54:01;99017.09;;;4.72;61.19
47280;BME280;34064;44.942;0.008;2022-12-07T06:56:27;99017.31;;;4.67;61.46
47280;BME280;34064;44.942;0.008;2022-12-07T06:58:54;99015.66;;;4.65;61.47
47280;BME280;34064;44.942;0.008;2022-12-07T07:01:21;99020.94;;;4.65;61.37
47280;BME280;34064;44.942;0.008;2022-12-07T07:03:47;99028.91;;;4.63;61.39
47280;BME280;34064;44.942;0.008;2022-12-07T07:06:13;99032.59;;;4.59;61.61
47280;BME280;34064;44.942;0.008;2022-12-07T07:08:39;99034.63;;;4.54;61.48
47280;BME280;34064;44.942;0.008;2022-12-07T07:11:06;99042.44;;;4.56;61.51
47280;BME280;34064;44.942;0.008;2022-12-07T07:13:32;99041.59;;;4.55;61.44
47280;BME280;34064;44.942;0.008;2022-12-07T07:15:59;99033.97;;;4.49;61.19
47280;BME280;34064;44.942;0.008;2022-12-07T07:18:25;99042.81;;;4.48;61.56
47280;BME280;34064;44.942;0.008;2022-12-07T07:20:52;99035.84;;;4.47;61.48
47280;BME280;34064;44.942;0.008;2022-12-07T07:23:18;99033.34;;;4.44;61.70
47280;BME280;34064;44.942;0.008;2022-12-07T07:25:45;99035.16;;;4.43;61.71
47280;BME280;34064;44.942;0.008;2022-12-07T07:28:11;99040.47;;;4.42;61.62
47280;BME280;34064;44.942;0.008;2022-12-07T07:30:37;99038.75;;;4.41;61.69
47280;BME280;34064;44.942;0.008;2022-12-07T07:33:04;99036.91;;;4.43;61.41
47280;BME280;34064;44.942;0.008;2022-12-07T07:35:31;99049.28;;;4.41;61.73
47280;BME280;34064;44.942;0.008;2022-12-07T07:37:57;99047.66;;;4.38;61.64
47280;BME280;34064;44.942;0.008;2022-12-07T07:40:24;99040.63;;;4.39;61.49
47280;BME280;34064;44.942;0.008;2022-12-07T07:42:50;99036.19;;;4.39;61.51
47280;BME280;34064;44.942;0.008;2022-12-07T07:45:17;99040.47;;;4.42;61.44
47280;BME280;34064;44.942;0.008;2022-12-07T07:47:44;99049.28;;;4.41;61.46
47280;BME280;34064;44.942;0.008;2022-12-07T07:50:10;99045.72;;;4.42;61.22
47280;BME280;34064;44.942;0.008;2022-12-07T07:52:36;99035.19;;;4.42;61.27
47280;BME280;34064;44.942;0.008;2022-12-07T07:55:03;99035.38;;;4.39;61.61
47280;BME280;34064;44.942;0.008;2022-12-07T07:57:29;99046.84;;;4.36;61.60
47280;BME280;34064;44.942;0.008;2022-12-07T07:59:55;99038.75;;;4.41;61.49
47280;BME280;34064;44.942;0.008;2022-12-07T08:02:22;99035.06;;;4.45;61.28
47280;BME280;34064;44.942;0.008;2022-12-07T08:04:49;99032.34;;;4.46;61.14
47280;BME280;34064;44.942;0.008;2022-12-07T08:07:15;99036.81;;;4.44;61.52
47280;BME280;34064;44.942;0.008;2022-12-07T08:09:41;99030.63;;;4.45;61.27
47280;BME280;34064;44.942;0.008;2022-12-07T08:12:07;99033.13;;;4.48;61.15
47280;BME280;34064;44.942;0.008;2022-12-07T08:14:34;99035.69;;;4.50;61.49
47280;BME280;34064;44.942;0.008;2022-12-07T08:17:00;99033.75;;;4.53;61.48
47280;BME280;34064;44.942;0.008;2022-12-07T08:19:27;99023.97;;;4.57;61.12
47280;BME280;34064;44.942;0.008;2022-12-07T08:21:53;99023.88;;;4.59;61.50
47280;BME280;34064;44.942;0.008;2022-12-07T08:24:21;99016.69;;;4.62;61.22
47280;BME280;34064;44.942;0.008;2022-12-07T08:26:47;99007.72;;;4.66;61.35
47280;BME280;34064;44.942;0.008;2022-12-07T08:29:14;98997.03;;;4.69;61.13
47280;BME280;34064;44.942;0.008;2022-12-07T08:31:40;99005.13;;;4.65;61.40
47280;BME280;34064;44.942;0.008;2022-12-07T08:34:06;99008.41;;;4.70;61.27
47280;BME280;34064;44.942;0.008;2022-12-07T08:36:32;99011.03;;;4.70;61.38
47280;BME280;34064;44.942;0.008;2022-12-07T08:38:58;99016.09;;;4.75;61.11
47280;BME280;34064;44.942;0.008;2022-12-07T08:41:25;99010.59;;;4.79;61.12
47280;BME280;34064;44.942;0.008;2022-12-07T08:43:51;99009.66;;;4.80;61.41
47280;BME280;34064;44.942;0.008;2022-12-07T08:49:04;99016.25;;;4.89;61.33
47280;BME280;34064;44.942;0.008;2022-12-07T08:51:31;99017.03;;;4.91;61.29
47280;BME280;34064;44.942;0.008;2022-12-07T08:53:58;99019.44;;;4.96;61.25
47280;BME280;34064;44.942;0.008;2022-12-07T08:56:26;99011.28;;;5.00;61.40
47280;BME280;34064;44.942;0.008;2022-12-07T08:58:52;99006.56;;;5.07;61.04
47280;BME280;34064;44.942;0.008;2022-12-07T09:01:19;99011.59;;;5.12;60.92
47280;BME280;34064;44.942;0.008;2022-12-07T09:03:45;99001.69;;;5.17;61.27
47280;BME280;34064;44.942;0.008;2022-12-07T09:06:11;99007.09;;;5.31;60.77
47280;BME280;34064;44.942;0.008;2022-12-07T09:08:39;99007.16;;;5.30;60.74
47280;BME280;34064;44.942;0.008;2022-12-07T09:11:06;99017.47;;;5.35;60.84
47280;BME280;34064;44.942;0.008;2022-12-07T09:13:32;99012.91;;;5.38;60.80
47280;BME280;34064;44.942;0.008;2022-12-07T09:15:58;99011.47;;;5.49;60.90
47280;BME280;34064;44.942;0.008;2022-12-07T09:18:24;99018.31;;;5.53;60.55
47280;BME280;34064;44.942;0.008;2022-12-07T09:20:51;99029.38;;;5.59;60.60
47280;BME280;34064;44.942;0.008;2022-12-07T09:23:17;99023.09;;;5.62;60.50
47280;BME280;34064;44.942;0.008;2022-12-07T09:25:43;99007.88;;;5.67;60.43
47280;BME280;34064;44.942;0.008;2022-12-07T09:28:09;99014.44;;;5.76;60.21
47280;BME280;34064;44.942;0.008;2022-12-07T09:30:35;99017.00;;;5.77;60.16
47280;BME280;34064;44.942;0.008;2022-12-07T09:33:02;99011.41;;;5.84;59.97
47280;BME280;34064;44.942;0.008;2022-12-07T09:35:28;99011.16;;;5.88;59.86
47280;BME280;34064;44.942;0.008;2022-12-07T09:37:54;99018.88;;;5.91;59.86
47280;BME280;34064;44.942;0.008;2022-12-07T09:40:21;99000.28;;;5.94;60.00
47280;BME280;34064;44.942;0.008;2022-12-07T09:42:49;99003.38;;;6.03;59.82
47280;BME280;34064;44.942;0.008;2022-12-07T09:45:19;99005.69;;;6.09;59.76
47280;BME280;34064;44.942;0.008;2022-12-07T09:47:46;99004.56;;;6.13;59.56
47280;BME280;34064;44.942;0.008;2022-12-07T09:50:14;98999.03;;;6.18;59.19
47280;BME280;34064;44.942;0.008;2022-12-07T09:52:41;98997.94;;;6.22;59.43
47280;BME280;34064;44.942;0.008;2022-12-07T09:55:10;98997.59;;;6.28;59.34
47280;BME280;34064;44.942;0.008;2022-12-07T09:57:36;98998.53;;;6.27;59.29
47280;BME280;34064;44.942;0.008;2022-12-07T10:00:04;99000.66;;;6.36;59.18
47280;BME280;34064;44.942;0.008;2022-12-07T10:04:58;98995.13;;;6.41;58.87
47280;BME280;34064;44.942;0.008;2022-12-07T10:07:24;98999.28;;;6.45;59.06
47280;BME280;34064;44.942;0.008;2022-12-07T10:09:51;98985.75;;;6.51;58.77
47280;BME280;34064;44.942;0.008;2022-12-07T10:12:17;98989.16;;;6.53;58.86
47280;BME280;34064;44.942;0.008;2022-12-07T10:15:03;98992.38;;;6.59;58.91
47280;BME280;34064;44.942;0.008;2022-12-07T10:17:35;98976.88;;;6.68;58.76
47280;BME280;34064;44.942;0.008;2022-12-07T10:20:08;98979.25;;;6.73;58.72
47280;BME280;34064;44.942;0.008;2022-12-07T10:22:38;98970.19;;;6.77;58.81
47280;BME280;34064;44.942;0.008;2022-12-07T10:25:08;98970.69;;;6.84;58.54
47280;BME280;34064;44.942;0.008;2022-12-07T10:27:35;98963.25;;;6.91;58.25
47280;BME280;34064;44.942;0.008;2022-12-07T10:30:01;98961.53;;;6.90;58.40
47280;BME280;34064;44.942;0.008;2022-12-07T10:32:34;98957.03;;;6.92;58.35
47280;BME280;34064;44.942;0.008;2022-12-07T10:35:24;98954.63;;;7.03;58.15
47280;BME280;34064;44.942;0.008;2022-12-07T10:37:51;98946.47;;;7.06;58.15
47280;BME280;34064;44.942;0.008;2022-12-07T10:46:18;98924.34;;;7.23;57.96
47280;BME280;34064;44.942;0.008;2022-12-07T10:48:52;98914.25;;;7.30;57.48
47280;BME280;34064;44.942;0.008;2022-12-07T11:01:48;98905.47;;;7.44;57.50
47280;BME280;34064;44.942;0.008;2022-12-07T11:07:15;98889.41;;;7.61;57.17
47280;BME280;34064;44.942;0.008;2022-12-07T11:10:08;98883.53;;;7.71;57.07
47280;BME280;34064;44.942;0.008;2022-12-07T11:15:25;98863.66;;;7.92;56.92
47280;BME280;34064;44.942;0.008;2022-12-07T11:18:06;98858.41;;;8.05;56.80
47280;BME280;34064;44.942;0.008;2022-12-07T11:20:58;98838.31;;;8.16;57.06
47280;BME280;34064;44.942;0.008;2022-12-07T11:23:46;98832.19;;;8.28;56.60
47280;BME280;34064;44.942;0.008;2022-12-07T11:26:43;98829.06;;;8.36;56.45
47280;BME280;34064;44.942;0.008;2022-12-07T11:37:24;98806.66;;;8.67;55.74
47280;BME280;34064;44.942;0.008;2022-12-07T11:39:54;98801.91;;;8.72;55.27
47280;BME280;34064;44.942;0.008;2022-12-07T11:42:46;98794.38;;;8.79;55.16
47280;BME280;34064;44.942;0.008;2022-12-07T11:45:26;98789.28;;;8.89;54.95
47280;BME280;34064;44.942;0.008;2022-12-07T11:48:17;98794.16;;;8.95;54.58
47280;BME280;34064;44.942;0.008;2022-12-07T11:50:56;98779.13;;;8.96;54.95
47280;BME280;34064;44.942;0.008;2022-12-07T11:53:28;98787.69;;;8.99;55.14
47280;BME280;34064;44.942;0.008;2022-12-07T11:56:10;98781.19;;;9.03;55.20
47280;BME280;34064;44.942;0.008;2022-12-07T11:58:51;98780.34;;;9.16;54.96
47280;BME280;34064;44.942;0.008;2022-12-07T12:03:54;98770.91;;;9.25;54.65
47280;BME280;34064;44.942;0.008;2022-12-07T12:06:24;98761.66;;;9.30;54.38
47280;BME280;34064;44.942;0.008;2022-12-07T12:24:13;98727.16;;;9.67;53.84
47280;BME280;34064;44.942;0.008;2022-12-07T12:26:21;98723.81;;;9.77;53.65
47280;BME280;34064;44.942;0.008;2022-12-07T12:29:03;98718.03;;;9.83;53.70
47280;BME280;34064;44.942;0.008;2022-12-07T12:31:39;98720.47;;;9.86;53.47
47280;BME280;34064;44.942;0.008;2022-12-07T12:34:30;98722.13;;;9.87;53.38
47280;BME280;34064;44.942;0.008;2022-12-07T12:36:57;98710.34;;;9.91;53.36
47280;BME280;34064;44.942;0.008;2022-12-07T12:39:24;98715.09;;;9.99;53.31
47280;BME280;34064;44.942;0.008;2022-12-07T12:41:53;98708.47;;;10.05;52.88
47280;BME280;34064;44.942;0.008;2022-12-07T12:51:55;98696.50;;;9.99;53.07
47280;BME280;34064;44.942;0.008;2022-12-07T12:54:24;98690.38;;;10.10;52.83
47280;BME280;34064;44.942;0.008;2022-12-07T12:57:15;98680.88;;;10.19;52.56
47280;BME280;34064;44.942;0.008;2022-12-07T13:02:24;98662.19;;;10.32;52.17
47280;BME280;34064;44.942;0.008;2022-12-07T13:04:52;98658.84;;;10.41;51.63
47280;BME280;34064;44.942;0.008;2022-12-07T13:15:53;98637.09;;;10.58;51.46
47280;BME280;34064;44.942;0.008;2022-12-07T13:26:35;98613.88;;;10.83;50.89
47280;BME280;34064;44.942;0.008;2022-12-07T13:29:15;98601.31;;;10.85;51.15
47280;BME280;34064;44.942;0.008;2022-12-07T13:31:56;98597.19;;;10.92;51.06
47280;BME280;34064;44.942;0.008;2022-12-07T13:34:40;98593.19;;;10.98;51.12
47280;BME280;34064;44.942;0.008;2022-12-07T13:37:30;98597.00;;;11.05;51.08
47280;BME280;34064;44.942;0.008;2022-12-07T13:40:00;98595.66;;;11.11;51.11
47280;BME280;34064;44.942;0.008;2022-12-07T13:42:32;98586.25;;;11.18;51.39
47280;BME280;34064;44.942;0.008;2022-12-07T13:45:13;98586.31;;;11.28;50.60
47280;BME280;34064;44.942;0.008;2022-12-07T13:47:52;98576.00;;;11.35;51.20
47280;BME280;34064;44.942;0.008;2022-12-07T13:50:30;98567.50;;;11.41;50.84
47280;BME280;34064;44.942;0.008;2022-12-07T13:53:01;98550.66;;;11.52;50.34
47280;BME280;34064;44.942;0.008;2022-12-07T13:55:30;98545.41;;;11.62;50.75
47280;BME280;34064;44.942;0.008;2022-12-07T13:57:57;98540.25;;;11.70;50.01
47280;BME280;34064;44.942;0.008;2022-12-07T14:00:27;98532.03;;;11.73;50.29
47280;BME280;34064;44.942;0.008;2022-12-07T14:05:45;98522.84;;;11.87;49.83
47280;BME280;34064;44.942;0.008;2022-12-07T14:10:41;98516.16;;;11.93;48.81
47280;BME280;34064;44.942;0.008;2022-12-07T14:13:38;98514.81;;;11.98;48.65
47280;BME280;34064;44.942;0.008;2022-12-07T14:18:45;98511.03;;;12.01;49.22
47280;BME280;34064;44.942;0.008;2022-12-07T14:21:21;98509.66;;;12.07;49.23
47280;BME280;34064;44.942;0.008;2022-12-07T14:24:19;98519.28;;;11.98;49.11
47280;BME280;34064;44.942;0.008;2022-12-07T14:26:48;98517.63;;;11.85;48.75
47280;BME280;34064;44.942;0.008;2022-12-07T14:29:32;98521.88;;;11.67;49.05
47280;BME280;34064;44.942;0.008;2022-12-07T14:32:17;98527.69;;;11.51;49.19
47280;BME280;34064;44.942;0.008;2022-12-07T14:35:09;98532.50;;;11.36;48.82
47280;BME280;34064;44.942;0.008;2022-12-07T14:37:40;98536.41;;;11.20;49.47
47280;BME280;34064;44.942;0.008;2022-12-07T14:40:07;98541.16;;;11.17;49.86
47280;BME280;34064;44.942;0.008;2022-12-07T14:42:35;98538.88;;;11.12;49.81
47280;BME280;34064;44.942;0.008;2022-12-07T14:45:01;98538.28;;;11.08;49.73
47280;BME280;34064;44.942;0.008;2022-12-07T14:47:27;98537.94;;;11.02;49.91
47280;BME280;34064;44.942;0.008;2022-12-07T14:49:54;98534.59;;;11.00;49.87
47280;BME280;34064;44.942;0.008;2022-12-07T14:52:27;98524.94;;;10.99;49.92
47280;BME280;34064;44.942;0.008;2022-12-07T14:54:54;98532.31;;;10.95;50.09
47280;BME280;34064;44.942;0.008;2022-12-07T14:57:20;98541.75;;;10.88;50.17
47280;BME280;34064;44.942;0.008;2022-12-07T14:59:46;98544.19;;;10.80;50.33
47280;BME280;34064;44.942;0.008;2022-12-07T15:02:14;98539.25;;;10.75;50.43
47280;BME280;34064;44.942;0.008;2022-12-07T15:04:41;98553.78;;;10.71;50.76
47280;BME280;34064;44.942;0.008;2022-12-07T15:07:18;98549.53;;;10.68;51.07